sensor_id;sensor_type;location;lat;lon;timestamp;P1;durP1;ratioP1;P2;durP2;ratioP2
22780;SDS011;11557;50.884;4.322;2023-04-10T00:01:01;14.27;;;10.75;;
22780;SDS011;11557;50.884;4.322;2023-04-10T00:03:27;12.68;;;11.32;;
22780;SDS011;11557;50.884;4.322;2023-04-10T00:05:54;11.85;;;10.32;;
22780;SDS011;11557;50.884;4.322;2023-04-10T00:08:21;12.35;;;10.30;;
22780;SDS011;11557;50.884;4.322;2023-04-10T00:10:47;12.30;;;10.48;;
22780;SDS011;11557;50.884;4.322;2023-04-10T00:13:13;12.77;;;10.07;;
22780;SDS011;11557;50.884;4.322;2023-04-10T00:15:41;11.57;;;9.50;;
22780;SDS011;11557;50.884;4.322;2023-04-10T00:18:07;13.10;;;10.15;;
22780;SDS011;11557;50.884;4.322;2023-04-10T00:20:33;11.80;;;9.85;;
22780;SDS011;11557;50.884;4.322;2023-04-10T00:22:58;11.77;;;9.60;;
22780;SDS011;11557;50.884;4.322;2023-04-10T00:25:24;12.13;;;9.48;;
22780;SDS011;11557;50.884;4.322;2023-04-10T00:27:51;12.15;;;9.10;;
22780;SDS011;11557;50.884;4.322;2023-04-10T00:30:17;11.82;;;9.40;;
22780;SDS011;11557;50.884;4.322;2023-04-10T00:32:43;12.95;;;9.27;;
22780;SDS011;11557;50.884;4.322;2023-04-10T00:35:09;13.63;;;9.05;;
22780;SDS011;11557;50.884;4.322;2023-04-10T00:37:35;12.70;;;8.20;;
22780;SDS011;11557;50.884;4.322;2023-04-10T00:40:01;11.85;;;8.02;;
22780;SDS011;11557;50.884;4.322;2023-04-10T00:42:27;11.43;;;8.68;;
22780;SDS011;11557;50.884;4.322;2023-04-10T00:44:52;11.63;;;8.13;;
22780;SDS011;11557;50.884;4.322;2023-04-10T00:47:18;13.35;;;7.78;;
22780;SDS011;11557;50.884;4.322;2023-04-10T00:49:44;11.38;;;7.47;;
22780;SDS011;11557;50.884;4.322;2023-04-10T00:52:10;10.55;;;7.55;;
22780;SDS011;11557;50.884;4.322;2023-04-10T00:54:36;8.68;;;7.30;;
22780;SDS011;11557;50.884;4.322;2023-04-10T00:57:02;11.32;;;7.63;;
22780;SDS011;11557;50.884;4.322;2023-04-10T00:59:31;10.70;;;7.80;;
22780;SDS011;11557;50.884;4.322;2023-04-10T01:01:57;11.25;;;7.57;;
22780;SDS011;11557;50.884;4.322;2023-04-10T01:04:23;11.10;;;8.18;;
22780;SDS011;11557;50.884;4.322;2023-04-10T01:09:28;11.10;;;8.23;;
22780;SDS011;11557;50.884;4.322;2023-04-10T01:12:10;12.48;;;7.47;;
22780;SDS011;11557;50.884;4.322;2023-04-10T01:17:28;8.48;;;7.40;;
22780;SDS011;11557;50.884;4.322;2023-04-10T01:23:25;11.95;;;7.50;;
22780;SDS011;11557;50.884;4.322;2023-04-10T01:28:06;11.00;;;7.03;;
22780;SDS011;11557;50.884;4.322;2023-04-10T01:30:56;8.13;;;6.85;;
22780;SDS011;11557;50.884;4.322;2023-04-10T01:33:25;7.43;;;6.60;;
22780;SDS011;11557;50.884;4.322;2023-04-10T01:35:57;7.88;;;6.88;;
22780;SDS011;11557;50.884;4.322;2023-04-10T01:38:27;12.20;;;6.60;;
22780;SDS011;11557;50.884;4.322;2023-04-10T01:40:54;7.28;;;6.47;;
22780;SDS011;11557;50.884;4.322;2023-04-10T01:43:22;8.40;;;6.40;;
22780;SDS011;11557;50.884;4.322;2023-04-10T01:45:50;8.27;;;6.93;;
22780;SDS011;11557;50.884;4.322;2023-04-10T01:48:17;7.88;;;6.60;;
22780;SDS011;11557;50.884;4.322;2023-04-10T01:50:44;8.98;;;6.57;;
22780;SDS011;11557;50.884;4.322;2023-04-10T01:53:11;8.65;;;6.13;;
22780;SDS011;11557;50.884;4.322;2023-04-10T01:55:37;8.80;;;6.50;;
22780;SDS011;11557;50.884;4.322;2023-04-10T01:58:03;7.82;;;5.95;;
22780;SDS011;11557;50.884;4.322;2023-04-10T02:00:29;8.15;;;6.63;;
22780;SDS011;11557;50.884;4.322;2023-04-10T02:03:01;7.07;;;5.95;;
22780;SDS011;11557;50.884;4.322;2023-04-10T02:05:27;8.10;;;6.28;;
22780;SDS011;11557;50.884;4.322;2023-04-10T02:08:04;7.10;;;5.90;;
22780;SDS011;11557;50.884;4.322;2023-04-10T02:10:40;7.38;;;5.90;;
22780;SDS011;11557;50.884;4.322;2023-04-10T02:13:08;6.78;;;6.05;;
22780;SDS011;11557;50.884;4.322;2023-04-10T02:15:35;6.88;;;6.18;;
22780;SDS011;11557;50.884;4.322;2023-04-10T02:18:03;7.57;;;5.97;;
22780;SDS011;11557;50.884;4.322;2023-04-10T02:20:30;6.72;;;5.88;;
22780;SDS011;11557;50.884;4.322;2023-04-10T02:22:58;7.00;;;6.05;;
22780;SDS011;11557;50.884;4.322;2023-04-10T02:25:31;9.48;;;6.45;;
22780;SDS011;11557;50.884;4.322;2023-04-10T02:27:57;8.23;;;6.13;;
22780;SDS011;11557;50.884;4.322;2023-04-10T02:30:27;7.38;;;5.80;;
22780;SDS011;11557;50.884;4.322;2023-04-10T02:32:53;9.48;;;6.85;;
22780;SDS011;11557;50.884;4.322;2023-04-10T02:35:19;7.45;;;6.10;;
22780;SDS011;11557;50.884;4.322;2023-04-10T02:37:46;9.68;;;7.22;;
22780;SDS011;11557;50.884;4.322;2023-04-10T02:40:12;8.75;;;6.68;;
22780;SDS011;11557;50.884;4.322;2023-04-10T02:42:37;8.02;;;6.78;;
22780;SDS011;11557;50.884;4.322;2023-04-10T02:45:03;10.65;;;6.70;;
22780;SDS011;11557;50.884;4.322;2023-04-10T02:47:30;10.63;;;6.63;;
22780;SDS011;11557;50.884;4.322;2023-04-10T02:49:56;9.75;;;7.43;;
22780;SDS011;11557;50.884;4.322;2023-04-10T02:52:21;10.52;;;6.63;;
22780;SDS011;11557;50.884;4.322;2023-04-10T02:54:47;8.73;;;6.43;;
22780;SDS011;11557;50.884;4.322;2023-04-10T02:57:13;9.27;;;6.72;;
22780;SDS011;11557;50.884;4.322;2023-04-10T02:59:38;7.85;;;6.22;;
22780;SDS011;11557;50.884;4.322;2023-04-10T03:02:04;9.60;;;6.70;;
22780;SDS011;11557;50.884;4.322;2023-04-10T03:04:32;8.35;;;7.10;;
22780;SDS011;11557;50.884;4.322;2023-04-10T03:06:58;10.30;;;6.53;;
22780;SDS011;11557;50.884;4.322;2023-04-10T03:09:24;7.45;;;6.13;;
22780;SDS011;11557;50.884;4.322;2023-04-10T03:11:50;8.43;;;6.78;;
22780;SDS011;11557;50.884;4.322;2023-04-10T03:14:16;8.45;;;6.93;;
22780;SDS011;11557;50.884;4.322;2023-04-10T03:16:42;10.63;;;6.78;;
22780;SDS011;11557;50.884;4.322;2023-04-10T03:19:08;9.95;;;6.63;;
22780;SDS011;11557;50.884;4.322;2023-04-10T03:21:33;9.05;;;6.72;;
22780;SDS011;11557;50.884;4.322;2023-04-10T03:23:59;8.00;;;6.72;;
22780;SDS011;11557;50.884;4.322;2023-04-10T03:26:25;11.27;;;7.47;;
22780;SDS011;11557;50.884;4.322;2023-04-10T03:28:51;7.50;;;6.28;;
22780;SDS011;11557;50.884;4.322;2023-04-10T03:31:17;10.05;;;6.20;;
22780;SDS011;11557;50.884;4.322;2023-04-10T03:33:43;8.45;;;6.53;;
22780;SDS011;11557;50.884;4.322;2023-04-10T03:36:09;8.60;;;6.75;;
22780;SDS011;11557;50.884;4.322;2023-04-10T03:38:35;9.32;;;6.95;;
22780;SDS011;11557;50.884;4.322;2023-04-10T03:41:01;8.48;;;6.45;;
22780;SDS011;11557;50.884;4.322;2023-04-10T03:43:26;9.15;;;6.60;;
22780;SDS011;11557;50.884;4.322;2023-04-10T03:45:54;9.88;;;6.43;;
22780;SDS011;11557;50.884;4.322;2023-04-10T03:48:20;8.48;;;6.70;;
22780;SDS011;11557;50.884;4.322;2023-04-10T03:50:48;11.40;;;6.75;;
22780;SDS011;11557;50.884;4.322;2023-04-10T03:53:14;9.63;;;7.30;;
22780;SDS011;11557;50.884;4.322;2023-04-10T03:55:41;7.68;;;6.10;;
22780;SDS011;11557;50.884;4.322;2023-04-10T03:58:06;11.43;;;6.72;;
22780;SDS011;11557;50.884;4.322;2023-04-10T04:00:32;8.95;;;6.32;;
22780;SDS011;11557;50.884;4.322;2023-04-10T04:02:58;8.20;;;6.80;;
22780;SDS011;11557;50.884;4.322;2023-04-10T04:05:25;8.30;;;6.95;;
22780;SDS011;11557;50.884;4.322;2023-04-10T04:07:50;11.30;;;6.50;;
22780;SDS011;11557;50.884;4.322;2023-04-10T04:10:16;7.95;;;6.13;;
22780;SDS011;11557;50.884;4.322;2023-04-10T04:12:42;10.07;;;6.65;;
22780;SDS011;11557;50.884;4.322;2023-04-10T04:15:08;9.68;;;6.88;;
22780;SDS011;11557;50.884;4.322;2023-04-10T04:17:33;9.40;;;6.60;;
22780;SDS011;11557;50.884;4.322;2023-04-10T04:19:59;8.60;;;6.80;;
22780;SDS011;11557;50.884;4.322;2023-04-10T04:22:25;8.05;;;5.88;;
22780;SDS011;11557;50.884;4.322;2023-04-10T04:24:51;9.95;;;6.65;;
22780;SDS011;11557;50.884;4.322;2023-04-10T04:27:16;8.70;;;6.07;;
22780;SDS011;11557;50.884;4.322;2023-04-10T04:29:44;12.23;;;6.50;;
22780;SDS011;11557;50.884;4.322;2023-04-10T04:32:09;9.05;;;6.28;;
22780;SDS011;11557;50.884;4.322;2023-04-10T04:34:35;7.70;;;6.15;;
22780;SDS011;11557;50.884;4.322;2023-04-10T04:37:01;8.73;;;6.60;;
22780;SDS011;11557;50.884;4.322;2023-04-10T04:39:27;7.78;;;6.20;;
22780;SDS011;11557;50.884;4.322;2023-04-10T04:41:52;10.05;;;6.13;;
22780;SDS011;11557;50.884;4.322;2023-04-10T04:44:18;8.52;;;6.65;;
22780;SDS011;11557;50.884;4.322;2023-04-10T04:46:44;10.85;;;6.55;;
22780;SDS011;11557;50.884;4.322;2023-04-10T04:49:10;8.27;;;6.30;;
22780;SDS011;11557;50.884;4.322;2023-04-10T04:51:35;8.40;;;6.30;;
22780;SDS011;11557;50.884;4.322;2023-04-10T04:54:02;9.70;;;6.40;;
22780;SDS011;11557;50.884;4.322;2023-04-10T04:56:28;9.07;;;6.53;;
22780;SDS011;11557;50.884;4.322;2023-04-10T04:58:54;10.50;;;6.65;;
22780;SDS011;11557;50.884;4.322;2023-04-10T05:01:19;10.65;;;6.50;;
22780;SDS011;11557;50.884;4.322;2023-04-10T05:03:46;10.73;;;7.15;;
22780;SDS011;11557;50.884;4.322;2023-04-10T05:06:11;9.65;;;7.00;;
22780;SDS011;11557;50.884;4.322;2023-04-10T05:08:38;10.15;;;6.97;;
22780;SDS011;11557;50.884;4.322;2023-04-10T05:11:04;8.98;;;6.88;;
22780;SDS011;11557;50.884;4.322;2023-04-10T05:13:30;11.32;;;6.60;;
22780;SDS011;11557;50.884;4.322;2023-04-10T05:15:55;8.90;;;6.50;;
22780;SDS011;11557;50.884;4.322;2023-04-10T05:18:22;8.20;;;5.85;;
22780;SDS011;11557;50.884;4.322;2023-04-10T05:20:47;10.77;;;6.60;;
22780;SDS011;11557;50.884;4.322;2023-04-10T05:23:14;9.80;;;6.78;;
22780;SDS011;11557;50.884;4.322;2023-04-10T05:25:40;7.97;;;6.28;;
22780;SDS011;11557;50.884;4.322;2023-04-10T05:28:06;8.27;;;6.05;;
22780;SDS011;11557;50.884;4.322;2023-04-10T05:30:32;6.82;;;5.97;;
22780;SDS011;11557;50.884;4.322;2023-04-10T05:32:57;7.13;;;6.38;;
22780;SDS011;11557;50.884;4.322;2023-04-10T05:35:23;7.40;;;6.22;;
22780;SDS011;11557;50.884;4.322;2023-04-10T05:37:48;9.15;;;6.78;;
22780;SDS011;11557;50.884;4.322;2023-04-10T05:40:14;8.02;;;6.18;;
22780;SDS011;11557;50.884;4.322;2023-04-10T05:42:40;10.18;;;6.88;;
22780;SDS011;11557;50.884;4.322;2023-04-10T05:45:05;11.57;;;7.95;;
22780;SDS011;11557;50.884;4.322;2023-04-10T05:47:31;9.60;;;6.68;;
22780;SDS011;11557;50.884;4.322;2023-04-10T05:49:57;11.57;;;6.10;;
22780;SDS011;11557;50.884;4.322;2023-04-10T05:52:22;9.63;;;6.18;;
22780;SDS011;11557;50.884;4.322;2023-04-10T05:54:48;9.52;;;6.70;;
22780;SDS011;11557;50.884;4.322;2023-04-10T05:57:15;9.70;;;6.00;;
22780;SDS011;11557;50.884;4.322;2023-04-10T05:59:41;9.00;;;6.13;;
22780;SDS011;11557;50.884;4.322;2023-04-10T06:02:06;7.68;;;6.00;;
22780;SDS011;11557;50.884;4.322;2023-04-10T06:04:32;8.32;;;5.90;;
22780;SDS011;11557;50.884;4.322;2023-04-10T06:06:58;8.77;;;6.18;;
22780;SDS011;11557;50.884;4.322;2023-04-10T06:09:23;8.52;;;5.88;;
22780;SDS011;11557;50.884;4.322;2023-04-10T06:11:49;9.07;;;6.00;;
22780;SDS011;11557;50.884;4.322;2023-04-10T06:14:18;8.43;;;6.13;;
22780;SDS011;11557;50.884;4.322;2023-04-10T06:16:44;7.13;;;5.70;;
22780;SDS011;11557;50.884;4.322;2023-04-10T06:19:10;7.47;;;5.93;;
22780;SDS011;11557;50.884;4.322;2023-04-10T06:21:35;7.82;;;6.05;;
22780;SDS011;11557;50.884;4.322;2023-04-10T06:24:01;6.57;;;5.45;;
22780;SDS011;11557;50.884;4.322;2023-04-10T06:26:27;7.97;;;6.05;;
22780;SDS011;11557;50.884;4.322;2023-04-10T06:28:52;8.77;;;5.97;;
22780;SDS011;11557;50.884;4.322;2023-04-10T06:31:18;7.72;;;6.07;;
22780;SDS011;11557;50.884;4.322;2023-04-10T06:33:47;7.53;;;6.05;;
22780;SDS011;11557;50.884;4.322;2023-04-10T06:36:13;8.10;;;5.75;;
22780;SDS011;11557;50.884;4.322;2023-04-10T06:38:39;7.22;;;6.03;;
22780;SDS011;11557;50.884;4.322;2023-04-10T06:41:05;7.53;;;6.03;;
22780;SDS011;11557;50.884;4.322;2023-04-10T06:43:34;7.32;;;5.72;;
22780;SDS011;11557;50.884;4.322;2023-04-10T06:46:00;7.80;;;5.40;;
22780;SDS011;11557;50.884;4.322;2023-04-10T06:48:28;7.90;;;6.30;;
22780;SDS011;11557;50.884;4.322;2023-04-10T06:50:54;7.05;;;5.45;;
22780;SDS011;11557;50.884;4.322;2023-04-10T06:53:20;8.25;;;5.97;;
22780;SDS011;11557;50.884;4.322;2023-04-10T06:55:45;11.65;;;5.78;;
22780;SDS011;11557;50.884;4.322;2023-04-10T06:58:11;11.52;;;7.28;;
22780;SDS011;11557;50.884;4.322;2023-04-10T07:00:37;6.90;;;6.00;;
22780;SDS011;11557;50.884;4.322;2023-04-10T07:03:02;7.75;;;5.82;;
22780;SDS011;11557;50.884;4.322;2023-04-10T07:05:28;7.57;;;6.35;;
22780;SDS011;11557;50.884;4.322;2023-04-10T07:07:54;6.68;;;5.68;;
22780;SDS011;11557;50.884;4.322;2023-04-10T07:10:19;10.25;;;6.20;;
22780;SDS011;11557;50.884;4.322;2023-04-10T07:12:45;8.10;;;6.28;;
22780;SDS011;11557;50.884;4.322;2023-04-10T07:15:11;6.72;;;6.07;;
22780;SDS011;11557;50.884;4.322;2023-04-10T07:17:36;7.32;;;6.25;;
22780;SDS011;11557;50.884;4.322;2023-04-10T07:20:03;7.50;;;6.55;;
22780;SDS011;11557;50.884;4.322;2023-04-10T07:22:29;6.82;;;5.47;;
22780;SDS011;11557;50.884;4.322;2023-04-10T07:24:56;8.07;;;6.25;;
22780;SDS011;11557;50.884;4.322;2023-04-10T07:27:24;6.90;;;6.00;;
22780;SDS011;11557;50.884;4.322;2023-04-10T07:29:51;6.35;;;5.75;;
22780;SDS011;11557;50.884;4.322;2023-04-10T07:32:18;6.70;;;5.65;;
22780;SDS011;11557;50.884;4.322;2023-04-10T07:34:44;9.40;;;5.60;;
22780;SDS011;11557;50.884;4.322;2023-04-10T07:37:09;6.75;;;5.45;;
22780;SDS011;11557;50.884;4.322;2023-04-10T07:39:35;8.88;;;5.93;;
22780;SDS011;11557;50.884;4.322;2023-04-10T07:42:00;7.47;;;6.03;;
22780;SDS011;11557;50.884;4.322;2023-04-10T07:44:26;5.88;;;5.28;;
22780;SDS011;11557;50.884;4.322;2023-04-10T07:46:52;9.48;;;5.90;;
22780;SDS011;11557;50.884;4.322;2023-04-10T07:49:18;6.47;;;5.53;;
22780;SDS011;11557;50.884;4.322;2023-04-10T07:51:44;7.72;;;6.05;;
22780;SDS011;11557;50.884;4.322;2023-04-10T07:54:09;8.18;;;6.03;;
22780;SDS011;11557;50.884;4.322;2023-04-10T07:56:35;6.35;;;5.72;;
22780;SDS011;11557;50.884;4.322;2023-04-10T07:59:01;6.88;;;6.03;;
22780;SDS011;11557;50.884;4.322;2023-04-10T08:01:27;7.18;;;6.25;;
22780;SDS011;11557;50.884;4.322;2023-04-10T08:03:52;8.43;;;6.00;;
22780;SDS011;11557;50.884;4.322;2023-04-10T08:06:20;7.25;;;6.35;;
22780;SDS011;11557;50.884;4.322;2023-04-10T08:08:45;6.53;;;5.88;;
22780;SDS011;11557;50.884;4.322;2023-04-10T08:11:27;7.47;;;6.03;;
22780;SDS011;11557;50.884;4.322;2023-04-10T08:13:55;6.93;;;5.63;;
22780;SDS011;11557;50.884;4.322;2023-04-10T08:16:31;6.50;;;5.70;;
22780;SDS011;11557;50.884;4.322;2023-04-10T08:18:58;10.35;;;5.75;;
22780;SDS011;11557;50.884;4.322;2023-04-10T08:21:25;8.93;;;6.00;;
22780;SDS011;11557;50.884;4.322;2023-04-10T08:23:53;7.90;;;6.25;;
22780;SDS011;11557;50.884;4.322;2023-04-10T08:26:20;6.85;;;6.15;;
22780;SDS011;11557;50.884;4.322;2023-04-10T08:28:50;6.72;;;5.88;;
22780;SDS011;11557;50.884;4.322;2023-04-10T08:31:17;8.73;;;6.30;;
22780;SDS011;11557;50.884;4.322;2023-04-10T08:33:47;6.88;;;6.05;;
22780;SDS011;11557;50.884;4.322;2023-04-10T08:36:13;8.93;;;6.50;;
22780;SDS011;11557;50.884;4.322;2023-04-10T08:38:42;7.70;;;6.20;;
22780;SDS011;11557;50.884;4.322;2023-04-10T08:41:09;7.15;;;6.20;;
22780;SDS011;11557;50.884;4.322;2023-04-10T08:43:36;7.00;;;5.85;;
22780;SDS011;11557;50.884;4.322;2023-04-10T08:46:02;9.77;;;5.82;;
22780;SDS011;11557;50.884;4.322;2023-04-10T08:48:30;7.97;;;6.07;;
22780;SDS011;11557;50.884;4.322;2023-04-10T08:51:18;8.20;;;6.15;;
22780;SDS011;11557;50.884;4.322;2023-04-10T08:53:45;9.52;;;6.13;;
22780;SDS011;11557;50.884;4.322;2023-04-10T08:56:12;7.78;;;6.63;;
22780;SDS011;11557;50.884;4.322;2023-04-10T08:58:40;7.82;;;6.28;;
22780;SDS011;11557;50.884;4.322;2023-04-10T09:01:06;9.80;;;6.28;;
22780;SDS011;11557;50.884;4.322;2023-04-10T09:03:33;11.30;;;6.75;;
22780;SDS011;11557;50.884;4.322;2023-04-10T09:06:02;9.55;;;6.30;;
22780;SDS011;11557;50.884;4.322;2023-04-10T09:08:29;8.55;;;6.40;;
22780;SDS011;11557;50.884;4.322;2023-04-10T09:10:54;9.77;;;6.72;;
22780;SDS011;11557;50.884;4.322;2023-04-10T09:13:40;7.97;;;6.47;;
22780;SDS011;11557;50.884;4.322;2023-04-10T09:16:07;10.98;;;7.88;;
22780;SDS011;11557;50.884;4.322;2023-04-10T09:21:22;11.38;;;6.57;;
22780;SDS011;11557;50.884;4.322;2023-04-10T09:23:48;8.60;;;6.15;;
22780;SDS011;11557;50.884;4.322;2023-04-10T09:26:27;8.23;;;5.93;;
22780;SDS011;11557;50.884;4.322;2023-04-10T09:28:54;7.53;;;5.95;;
22780;SDS011;11557;50.884;4.322;2023-04-10T09:31:32;9.15;;;5.95;;
22780;SDS011;11557;50.884;4.322;2023-04-10T09:34:15;6.97;;;5.32;;
22780;SDS011;11557;50.884;4.322;2023-04-10T09:36:41;6.38;;;5.72;;
22780;SDS011;11557;50.884;4.322;2023-04-10T09:39:33;8.35;;;5.72;;
22780;SDS011;11557;50.884;4.322;2023-04-10T09:42:07;7.70;;;5.72;;
22780;SDS011;11557;50.884;4.322;2023-04-10T09:44:35;6.13;;;5.53;;
22780;SDS011;11557;50.884;4.322;2023-04-10T09:47:14;6.07;;;5.47;;
22780;SDS011;11557;50.884;4.322;2023-04-10T09:49:46;6.43;;;5.05;;
22780;SDS011;11557;50.884;4.322;2023-04-10T09:54:52;6.68;;;5.72;;
22780;SDS011;11557;50.884;4.322;2023-04-10T09:57:20;5.40;;;4.90;;
22780;SDS011;11557;50.884;4.322;2023-04-10T09:59:50;5.82;;;5.22;;
22780;SDS011;11557;50.884;4.322;2023-04-10T10:02:18;4.90;;;4.35;;
22780;SDS011;11557;50.884;4.322;2023-04-10T10:04:45;6.15;;;4.53;;
22780;SDS011;11557;50.884;4.322;2023-04-10T10:07:15;5.72;;;4.43;;
22780;SDS011;11557;50.884;4.322;2023-04-10T10:09:42;5.82;;;4.50;;
22780;SDS011;11557;50.884;4.322;2023-04-10T10:12:10;6.40;;;4.65;;
22780;SDS011;11557;50.884;4.322;2023-04-10T10:17:25;5.50;;;4.60;;
22780;SDS011;11557;50.884;4.322;2023-04-10T10:22:24;5.88;;;4.28;;
22780;SDS011;11557;50.884;4.322;2023-04-10T10:24:52;5.07;;;3.78;;
22780;SDS011;11557;50.884;4.322;2023-04-10T10:27:21;5.93;;;4.60;;
22780;SDS011;11557;50.884;4.322;2023-04-10T10:29:49;4.93;;;4.40;;
22780;SDS011;11557;50.884;4.322;2023-04-10T10:32:16;5.40;;;4.10;;
22780;SDS011;11557;50.884;4.322;2023-04-10T10:34:43;5.45;;;4.10;;
22780;SDS011;11557;50.884;4.322;2023-04-10T10:37:10;5.45;;;3.83;;
22780;SDS011;11557;50.884;4.322;2023-04-10T10:47:33;6.68;;;3.50;;
22780;SDS011;11557;50.884;4.322;2023-04-10T10:50:08;5.00;;;3.47;;
22780;SDS011;11557;50.884;4.322;2023-04-10T10:57:51;3.70;;;3.10;;
22780;SDS011;11557;50.884;4.322;2023-04-10T11:00:17;3.65;;;2.92;;
22780;SDS011;11557;50.884;4.322;2023-04-10T11:11:01;6.40;;;3.20;;
22780;SDS011;11557;50.884;4.322;2023-04-10T11:13:29;7.72;;;2.67;;
22780;SDS011;11557;50.884;4.322;2023-04-10T11:15:59;4.65;;;3.40;;
22780;SDS011;11557;50.884;4.322;2023-04-10T11:21:11;3.10;;;2.80;;
22780;SDS011;11557;50.884;4.322;2023-04-10T11:29:43;6.10;;;2.95;;
22780;SDS011;11557;50.884;4.322;2023-04-10T11:31:56;4.35;;;2.97;;
22780;SDS011;11557;50.884;4.322;2023-04-10T11:34:29;4.25;;;3.38;;
22780;SDS011;11557;50.884;4.322;2023-04-10T11:36:57;3.83;;;2.80;;
22780;SDS011;11557;50.884;4.322;2023-04-10T11:39:27;5.43;;;3.20;;
22780;SDS011;11557;50.884;4.322;2023-04-10T11:41:54;3.20;;;2.90;;
22780;SDS011;11557;50.884;4.322;2023-04-10T11:46:55;5.13;;;4.15;;
22780;SDS011;11557;50.884;4.322;2023-04-10T11:49:40;3.53;;;2.85;;
22780;SDS011;11557;50.884;4.322;2023-04-10T11:52:05;3.38;;;2.80;;
22780;SDS011;11557;50.884;4.322;2023-04-10T11:54:31;3.20;;;2.83;;
22780;SDS011;11557;50.884;4.322;2023-04-10T11:59:24;3.80;;;2.72;;
22780;SDS011;11557;50.884;4.322;2023-04-10T12:01:50;2.95;;;2.60;;
22780;SDS011;11557;50.884;4.322;2023-04-10T12:04:20;2.72;;;2.53;;
22780;SDS011;11557;50.884;4.322;2023-04-10T12:06:48;6.80;;;2.63;;
22780;SDS011;11557;50.884;4.322;2023-04-10T12:09:20;2.95;;;2.63;;
22780;SDS011;11557;50.884;4.322;2023-04-10T12:11:47;3.30;;;2.22;;
22780;SDS011;11557;50.884;4.322;2023-04-10T12:14:17;4.95;;;2.58;;
22780;SDS011;11557;50.884;4.322;2023-04-10T12:16:44;4.78;;;3.13;;
22780;SDS011;11557;50.884;4.322;2023-04-10T12:19:11;6.15;;;2.50;;
22780;SDS011;11557;50.884;4.322;2023-04-10T12:21:38;3.88;;;3.08;;
22780;SDS011;11557;50.884;4.322;2023-04-10T12:24:06;4.72;;;2.88;;
22780;SDS011;11557;50.884;4.322;2023-04-10T12:26:32;4.57;;;2.95;;
22780;SDS011;11557;50.884;4.322;2023-04-10T12:28:58;4.72;;;2.53;;
22780;SDS011;11557;50.884;4.322;2023-04-10T12:31:34;4.45;;;2.65;;
22780;SDS011;11557;50.884;4.322;2023-04-10T12:34:01;5.43;;;2.60;;
22780;SDS011;11557;50.884;4.322;2023-04-10T12:36:29;3.22;;;2.92;;
22780;SDS011;11557;50.884;4.322;2023-04-10T12:38:59;4.85;;;3.58;;
22780;SDS011;11557;50.884;4.322;2023-04-10T12:41:29;7.72;;;4.20;;
22780;SDS011;11557;50.884;4.322;2023-04-10T12:44:09;5.18;;;3.78;;
22780;SDS011;11557;50.884;4.322;2023-04-10T12:46:36;4.35;;;3.92;;
22780;SDS011;11557;50.884;4.322;2023-04-10T12:49:12;5.28;;;3.97;;
22780;SDS011;11557;50.884;4.322;2023-04-10T12:51:55;4.32;;;3.83;;
22780;SDS011;11557;50.884;4.322;2023-04-10T12:57:37;5.88;;;4.30;;
22780;SDS011;11557;50.884;4.322;2023-04-10T13:00:04;6.18;;;3.88;;
22780;SDS011;11557;50.884;4.322;2023-04-10T13:02:37;6.57;;;4.10;;
22780;SDS011;11557;50.884;4.322;2023-04-10T13:05:33;4.53;;;3.58;;
22780;SDS011;11557;50.884;4.322;2023-04-10T13:07:58;4.78;;;4.05;;
22780;SDS011;11557;50.884;4.322;2023-04-10T13:10:25;6.35;;;3.85;;
22780;SDS011;11557;50.884;4.322;2023-04-10T13:15:43;4.65;;;3.75;;
22780;SDS011;11557;50.884;4.322;2023-04-10T13:24:06;4.32;;;3.60;;
22780;SDS011;11557;50.884;4.322;2023-04-10T13:29:50;5.10;;;4.07;;
22780;SDS011;11557;50.884;4.322;2023-04-10T13:32:23;5.65;;;3.95;;
22780;SDS011;11557;50.884;4.322;2023-04-10T13:35:15;5.45;;;4.05;;
22780;SDS011;11557;50.884;4.322;2023-04-10T13:38:02;7.57;;;4.72;;
22780;SDS011;11557;50.884;4.322;2023-04-10T13:40:30;7.15;;;4.57;;
22780;SDS011;11557;50.884;4.322;2023-04-10T13:43:03;7.53;;;3.38;;
22780;SDS011;11557;50.884;4.322;2023-04-10T13:45:52;3.90;;;3.50;;
22780;SDS011;11557;50.884;4.322;2023-04-10T13:48:17;3.80;;;3.50;;
22780;SDS011;11557;50.884;4.322;2023-04-10T13:54:14;5.03;;;4.28;;
22780;SDS011;11557;50.884;4.322;2023-04-10T13:56:43;4.15;;;3.60;;
22780;SDS011;11557;50.884;4.322;2023-04-10T13:59:10;4.65;;;3.60;;
22780;SDS011;11557;50.884;4.322;2023-04-10T14:01:35;5.63;;;3.28;;
22780;SDS011;11557;50.884;4.322;2023-04-10T14:04:01;4.13;;;2.97;;
22780;SDS011;11557;50.884;4.322;2023-04-10T14:06:27;8.73;;;3.30;;
22780;SDS011;11557;50.884;4.322;2023-04-10T14:08:53;5.47;;;3.08;;
22780;SDS011;11557;50.884;4.322;2023-04-10T14:11:19;4.80;;;3.88;;
22780;SDS011;11557;50.884;4.322;2023-04-10T14:13:45;4.13;;;3.20;;
22780;SDS011;11557;50.884;4.322;2023-04-10T14:16:11;4.30;;;2.80;;
22780;SDS011;11557;50.884;4.322;2023-04-10T14:18:37;2.42;;;2.20;;
22780;SDS011;11557;50.884;4.322;2023-04-10T14:21:02;4.82;;;2.40;;
22780;SDS011;11557;50.884;4.322;2023-04-10T14:23:28;3.90;;;2.55;;
22780;SDS011;11557;50.884;4.322;2023-04-10T14:25:54;3.78;;;2.95;;
22780;SDS011;11557;50.884;4.322;2023-04-10T14:28:19;3.13;;;2.63;;
22780;SDS011;11557;50.884;4.322;2023-04-10T14:30:45;3.33;;;2.60;;
22780;SDS011;11557;50.884;4.322;2023-04-10T14:33:15;4.80;;;2.65;;
22780;SDS011;11557;50.884;4.322;2023-04-10T14:35:43;3.08;;;2.42;;
22780;SDS011;11557;50.884;4.322;2023-04-10T14:38:09;3.92;;;2.40;;
22780;SDS011;11557;50.884;4.322;2023-04-10T14:40:35;4.03;;;2.25;;
22780;SDS011;11557;50.884;4.322;2023-04-10T14:43:01;5.28;;;2.90;;
22780;SDS011;11557;50.884;4.322;2023-04-10T14:45:30;4.78;;;2.60;;
22780;SDS011;11557;50.884;4.322;2023-04-10T14:47:56;4.40;;;2.78;;
22780;SDS011;11557;50.884;4.322;2023-04-10T14:50:22;3.63;;;2.67;;
22780;SDS011;11557;50.884;4.322;2023-04-10T14:52:49;3.95;;;2.50;;
22780;SDS011;11557;50.884;4.322;2023-04-10T14:55:16;5.38;;;2.80;;
22780;SDS011;11557;50.884;4.322;2023-04-10T14:57:41;7.25;;;2.70;;
22780;SDS011;11557;50.884;4.322;2023-04-10T15:00:07;7.38;;;2.55;;
22780;SDS011;11557;50.884;4.322;2023-04-10T15:02:33;4.75;;;2.60;;
22780;SDS011;11557;50.884;4.322;2023-04-10T15:04:59;4.53;;;2.67;;
22780;SDS011;11557;50.884;4.322;2023-04-10T15:07:25;4.07;;;2.65;;
22780;SDS011;11557;50.884;4.322;2023-04-10T15:10:01;4.07;;;2.85;;
22780;SDS011;11557;50.884;4.322;2023-04-10T15:12:27;3.15;;;2.40;;
22780;SDS011;11557;50.884;4.322;2023-04-10T15:14:52;5.43;;;3.17;;
22780;SDS011;11557;50.884;4.322;2023-04-10T15:17:21;6.07;;;3.13;;
22780;SDS011;11557;50.884;4.322;2023-04-10T15:19:47;5.70;;;3.15;;
22780;SDS011;11557;50.884;4.322;2023-04-10T15:22:13;4.78;;;3.05;;
22780;SDS011;11557;50.884;4.322;2023-04-10T15:24:39;4.05;;;3.60;;
22780;SDS011;11557;50.884;4.322;2023-04-10T15:27:05;5.95;;;3.67;;
22780;SDS011;11557;50.884;4.322;2023-04-10T15:29:35;8.32;;;4.00;;
22780;SDS011;11557;50.884;4.322;2023-04-10T15:32:02;5.25;;;4.53;;
22780;SDS011;11557;50.884;4.322;2023-04-10T15:34:29;8.10;;;4.38;;
22780;SDS011;11557;50.884;4.322;2023-04-10T15:36:55;6.07;;;4.85;;
22780;SDS011;11557;50.884;4.322;2023-04-10T15:39:20;6.55;;;4.88;;
22780;SDS011;11557;50.884;4.322;2023-04-10T15:41:46;5.80;;;5.05;;
22780;SDS011;11557;50.884;4.322;2023-04-10T15:44:14;8.18;;;5.88;;
22780;SDS011;11557;50.884;4.322;2023-04-10T15:46:40;9.30;;;5.97;;
22780;SDS011;11557;50.884;4.322;2023-04-10T15:49:06;8.27;;;6.72;;
22780;SDS011;11557;50.884;4.322;2023-04-10T15:51:32;8.65;;;7.22;;
22780;SDS011;11557;50.884;4.322;2023-04-10T15:53:58;8.07;;;6.93;;
22780;SDS011;11557;50.884;4.322;2023-04-10T15:56:23;12.38;;;7.93;;
22780;SDS011;11557;50.884;4.322;2023-04-10T15:58:49;10.50;;;7.35;;
22780;SDS011;11557;50.884;4.322;2023-04-10T16:01:14;8.82;;;6.95;;
22780;SDS011;11557;50.884;4.322;2023-04-10T16:03:40;8.23;;;6.78;;